createdAt,value
2022-09-07T00:01:13.977Z,97146.25
2022-09-07T00:03:42.373Z,97136.38
2022-09-07T00:06:13.252Z,97142.75
2022-09-07T00:08:43.612Z,97141.94
2022-09-07T00:11:14.971Z,97136.78
2022-09-07T00:13:44.670Z,97140.28
2022-09-07T00:16:15.226Z,97136.97
2022-09-07T00:18:46.249Z,97135.31
2022-09-07T00:21:16.825Z,97134.47
2022-09-07T00:23:45.699Z,97131.81
2022-09-07T00:26:17.951Z,97137.34
2022-09-07T00:28:47.099Z,97135.50
2022-09-07T00:31:17.312Z,97144.56
2022-09-07T00:33:46.530Z,97141.88
2022-09-07T00:36:15.347Z,97129.72
2022-09-07T00:38:43.834Z,97134.25
2022-09-07T00:41:12.678Z,97124.56
2022-09-07T00:43:44.425Z,97120.22
2022-09-07T00:46:14.858Z,97117.94
2022-09-07T00:48:46.641Z,97118.13
2022-09-07T00:51:18.278Z,97118.94
2022-09-07T00:53:53.685Z,97114.44
2022-09-07T00:56:23.663Z,97125.97
2022-09-07T00:58:53.938Z,97127.19
2022-09-07T01:01:22.784Z,97123.22
2022-09-07T01:03:52.637Z,97124.25
2022-09-07T01:06:23.169Z,97123.44
2022-09-07T01:08:51.720Z,97127.13
2022-09-07T01:11:22.771Z,97126.94
2022-09-07T01:13:53.446Z,97137.63
2022-09-07T01:16:36.765Z,97133.31
2022-09-07T01:19:15.631Z,97138.66
2022-09-07T01:21:54.384Z,97142.56
2022-09-07T01:24:36.617Z,97136.38
2022-09-07T01:27:52.756Z,97132.88
2022-09-07T01:30:23.175Z,97137.41
2022-09-07T01:33:05.630Z,97140.25
2022-09-07T01:35:40.988Z,97126.88
2022-09-07T01:38:11.768Z,97134.91
2022-09-07T01:40:47.162Z,97136.13
2022-09-07T01:43:23.400Z,97137.97
2022-09-07T01:45:55.070Z,97137.97
2022-09-07T01:48:24.687Z,97132.81
2022-09-07T01:50:56.846Z,97134.47
2022-09-07T01:53:28.232Z,97129.31
2022-09-07T01:55:59.672Z,97128.69
2022-09-07T01:58:33.378Z,97122.69
2022-09-07T02:01:06.333Z,97123.72
2022-09-07T02:03:38.508Z,97114.22
2022-09-07T02:06:12.737Z,97122.88
2022-09-07T02:08:44.215Z,97123.72
2022-09-07T02:11:16.139Z,97134.59
2022-09-07T02:13:49.621Z,97143.47
2022-09-07T02:16:21.183Z,97142.63
2022-09-07T02:18:54.351Z,97131.28
2022-09-07T02:21:26.321Z,97134.59
2022-09-07T02:23:59.239Z,97134.81
2022-09-07T02:26:29.776Z,97139.56
2022-09-07T02:28:59.563Z,97139.56
2022-09-07T02:31:28.651Z,97155.81
2022-09-07T02:33:57.431Z,97152.28
2022-09-07T02:36:27.899Z,97147.31
2022-09-07T02:38:56.379Z,97142.63
2022-09-07T02:41:31.712Z,97141.97
2022-09-07T02:44:02.634Z,97141.16
2022-09-07T02:46:41.742Z,97138.47
2022-09-07T02:49:18.145Z,97136.81
2022-09-07T02:51:51.963Z,97127.13
2022-09-07T02:54:30.401Z,97127.97
2022-09-07T02:57:05.785Z,97124.47
2022-09-07T02:59:45.151Z,97118.47
2022-09-07T03:02:20.974Z,97114.97
2022-09-07T03:04:54.642Z,97120.31
2022-09-07T03:07:27.056Z,97114.97
2022-09-07T03:09:59.086Z,97112.47
2022-09-07T03:12:39.788Z,97110.81
2022-09-07T03:15:12.176Z,97112.88
2022-09-07T03:17:40.769Z,97112.88
2022-09-07T03:20:10.046Z,97112.22
2022-09-07T03:22:38.585Z,97114.72
2022-09-07T03:25:08.429Z,97124.78
2022-09-07T03:27:36.927Z,97110.38
2022-09-07T03:30:07.504Z,97113.06
2022-09-07T03:32:38.571Z,97118.59
2022-09-07T03:35:08.575Z,97128.09
2022-09-07T03:37:37.408Z,97127.25
2022-09-07T03:40:07.922Z,97127.66
2022-09-07T03:42:36.460Z,97134.84
2022-09-07T03:45:06.768Z,97129.50
2022-09-07T03:47:35.334Z,97124.16
2022-09-07T03:50:05.635Z,97119.81
2022-09-07T03:52:34.969Z,97125.34
2022-09-07T03:55:03.440Z,97115.63
2022-09-07T03:57:32.120Z,97114.81
2022-09-07T04:00:00.597Z,97120.16
2022-09-07T04:02:29.050Z,97123.50
2022-09-07T04:04:57.522Z,97112.13
2022-09-07T04:07:27.297Z,97112.34
2022-09-07T04:09:55.718Z,97110.47
2022-09-07T04:12:26.046Z,97109.66
2022-09-07T04:14:54.470Z,97112.34
2022-09-07T04:17:23.005Z,97122.50
2022-09-07T04:19:52.725Z,97108.91
2022-09-07T04:22:21.327Z,97123.13
2022-09-07T04:24:51.198Z,97119.81
2022-09-07T04:27:19.611Z,97121.47
2022-09-07T04:29:48.653Z,97119.81
2022-09-07T04:32:17.119Z,97119.00
2022-09-07T04:34:45.691Z,97124.53
2022-09-07T04:37:20.347Z,97124.88
2022-09-07T04:39:52.259Z,97125.91
2022-09-07T04:42:27.060Z,97117.88
2022-09-07T04:44:56.777Z,97121.56
2022-09-07T04:47:28.567Z,97125.44
2022-09-07T04:50:28.127Z,97126.03
2022-09-07T04:53:00.036Z,97122.72
2022-09-07T04:55:34.310Z,97122.72
2022-09-07T04:58:05.805Z,97119.22
2022-09-07T05:00:34.270Z,97137.09
2022-09-07T05:03:02.714Z,97142.44
2022-09-07T05:05:31.147Z,97153.16
2022-09-07T05:07:59.583Z,97155.19
2022-09-07T05:10:28.034Z,97140.97
2022-09-07T05:12:58.291Z,97144.50
2022-09-07T05:15:26.762Z,97157.84
2022-09-07T05:17:55.583Z,97157.03
2022-09-07T05:20:24.148Z,97157.84
2022-09-07T05:22:59.449Z,97158.69
2022-09-07T05:25:32.738Z,97159.50
2022-09-07T05:28:03.886Z,97158.06
2022-09-07T05:33:22.438Z,97173.91
2022-09-07T05:36:01.623Z,97183.13
2022-09-07T05:38:30.410Z,97180.28
2022-09-07T05:40:59.356Z,97181.28
2022-09-07T05:43:29.118Z,97179.63
2022-09-07T05:45:58.609Z,97183.97
2022-09-07T05:48:27.438Z,97183.97
2022-09-07T05:50:55.968Z,97194.03
2022-09-07T05:53:24.548Z,97196.50
2022-09-07T05:55:53.021Z,97195.69
2022-09-07T05:58:32.069Z,97198.34
2022-09-07T06:01:12.020Z,97191.34
2022-09-07T06:03:46.465Z,97195.69
2022-09-07T06:06:20.710Z,97198.53
2022-09-07T06:08:52.664Z,97204.91
2022-09-07T06:11:22.834Z,97204.91
2022-09-07T06:13:51.942Z,97210.25
2022-09-07T06:16:21.997Z,97210.25
2022-09-07T06:18:51.048Z,97212.94
2022-09-07T06:21:21.644Z,97211.09
2022-09-07T06:23:51.666Z,97215.59
2022-09-07T06:26:20.468Z,97211.91
2022-09-07T06:28:52.101Z,97211.28
2022-09-07T06:31:25.741Z,97201.41
2022-09-07T06:33:56.489Z,97205.72
2022-09-07T06:36:27.282Z,97204.06
2022-09-07T06:38:56.793Z,97211.28
2022-09-07T06:44:21.485Z,97205.72
2022-09-07T06:47:06.722Z,97217.44
2022-09-07T06:49:35.182Z,97213.13
2022-09-07T06:52:04.178Z,97207.75
2022-09-07T06:57:28.347Z,97205.91
2022-09-07T07:00:02.605Z,97209.44
2022-09-07T07:02:36.699Z,97212.09
2022-09-07T07:05:05.658Z,97206.94
2022-09-07T07:07:41.331Z,97201.59
2022-09-07T07:10:11.475Z,97199.75
2022-09-07T07:12:52.044Z,97205.91
2022-09-07T07:15:24.567Z,97202.41
2022-09-07T07:18:05.500Z,97199.94
2022-09-07T07:20:48.236Z,97194.41
2022-09-07T07:23:16.708Z,97202.41
2022-09-07T07:25:50.181Z,97202.41
2022-09-07T07:31:19.303Z,97201.41
2022-09-07T07:33:54.532Z,97210.44
2022-09-07T07:36:26.953Z,97208.78
2022-09-07T07:44:18.993Z,97202.41
2022-09-07T07:46:48.914Z,97206.75
2022-09-07T07:49:27.216Z,97205.09
2022-09-07T07:54:46.995Z,97198.72
2022-09-07T07:57:24.490Z,97210.25
2022-09-07T07:59:54.567Z,97206.75
2022-09-07T08:02:23.673Z,97208.41
2022-09-07T08:04:53.785Z,97198.34
2022-09-07T08:07:22.266Z,97194.22
2022-09-07T08:09:51.573Z,97200.56
2022-09-07T08:12:21.281Z,97199.56
2022-09-07T08:14:49.902Z,97202.03
2022-09-07T08:17:18.673Z,97190.50
2022-09-07T08:19:50.270Z,97188.66
2022-09-07T08:22:23.773Z,97185.16
2022-09-07T08:24:54.084Z,97191.97
2022-09-07T08:27:22.754Z,97197.34
2022-09-07T08:29:51.647Z,97192.63
2022-09-07T08:32:20.127Z,97194.28
2022-09-07T08:34:48.704Z,97194.28
2022-09-07T08:37:17.075Z,97192.63
2022-09-07T08:39:46.967Z,97204.97
2022-09-07T08:42:26.268Z,97197.78
2022-09-07T08:44:58.115Z,97195.94
2022-09-07T08:47:33.246Z,97199.44
2022-09-07T08:50:04.965Z,97192.25
2022-09-07T08:52:42.148Z,97202.31
2022-09-07T08:55:21.464Z,97210.31
2022-09-07T08:57:57.113Z,97197.78
2022-09-07T09:00:27.193Z,97208.28
2022-09-07T09:05:58.064Z,97196.78
2022-09-07T09:08:34.579Z,97201.28
2022-09-07T09:11:08.542Z,97209.31
2022-09-07T09:13:49.754Z,97198.44
2022-09-07T09:19:30.169Z,97183.09
2022-09-07T09:22:09.115Z,97184.00
2022-09-07T09:24:39.946Z,97187.59
2022-09-07T09:27:10.635Z,97186.56
2022-09-07T09:29:39.230Z,97195.44
2022-09-07T09:32:39.909Z,97196.25
2022-09-07T09:35:18.481Z,97201.59
2022-09-07T09:37:47.378Z,97202.88
2022-09-07T09:40:22.132Z,97203.78
2022-09-07T09:43:01.837Z,97201.28
2022-09-07T09:46:12.074Z,97200.47
2022-09-07T09:48:29.586Z,97202.75
2022-09-07T09:53:53.951Z,97206.31
2022-09-07T09:56:23.206Z,97201.34
2022-09-07T10:05:25.020Z,97194.59
2022-09-07T10:08:00.784Z,97192.75
2022-09-07T10:10:31.424Z,97190.91
2022-09-07T10:13:00.553Z,97191.91
2022-09-07T10:15:40.988Z,97187.59
2022-09-07T10:18:19.420Z,97192.75
2022-09-07T10:20:49.088Z,97186.19
2022-09-07T10:23:23.236Z,97185.81
2022-09-07T10:25:53.677Z,97177.97
2022-09-07T10:31:28.895Z,97182.13
2022-09-07T10:34:27.369Z,97181.72
2022-09-07T10:37:09.832Z,97171.03
2022-09-07T10:40:07.590Z,97172.91
2022-09-07T10:42:38.855Z,97168.38
2022-09-07T10:45:15.451Z,97160.16
2022-09-07T10:47:55.354Z,97155.69
2022-09-07T10:50:35.836Z,97150.97
2022-09-07T10:54:29.261Z,97157.28
2022-09-07T10:56:54.132Z,97152.03
2022-09-07T11:02:29.631Z,97136.97
2022-09-07T11:05:06.658Z,97120.06
2022-09-07T11:07:55.760Z,97118.41
2022-09-07T11:10:29.389Z,97115.00
2022-09-07T11:13:01.337Z,97114.91
2022-09-07T11:15:32.787Z,97114.31
2022-09-07T11:18:04.867Z,97117.81
2022-09-07T11:20:37.530Z,97115.97
2022-09-07T11:23:13.125Z,97119.38
2022-09-07T11:25:46.646Z,97115.47
2022-09-07T11:28:19.477Z,97114.72
2022-09-07T11:30:56.611Z,97102.16
2022-09-07T11:33:30.527Z,97102.47
2022-09-07T11:36:03.530Z,97097.56
2022-09-07T11:38:43.487Z,97099.22
2022-09-07T11:41:29.605Z,97100.03
2022-09-07T11:44:05.553Z,97099.81
2022-09-07T11:46:38.933Z,97088.09
2022-09-07T11:49:12.484Z,97092.44
2022-09-07T11:51:46.330Z,97093.47
2022-09-07T11:54:37.596Z,97088.34
2022-09-07T11:57:33.803Z,97093.09
2022-09-07T12:00:11.981Z,97090.41
2022-09-07T12:03:03.059Z,97089.41
2022-09-07T12:05:42.406Z,97082.41
2022-09-07T12:08:21.946Z,97083.44
2022-09-07T12:11:23.505Z,97079.09
2022-09-07T12:14:01.677Z,97084.22
2022-09-07T12:16:41.888Z,97083.19
2022-09-07T12:19:17.856Z,97070.47
2022-09-07T12:21:50.576Z,97071.09
2022-09-07T12:24:43.956Z,97061.00
2022-09-07T12:27:43.218Z,97074.16
2022-09-07T12:30:51.848Z,97058.50
2022-09-07T12:33:34.078Z,97064.50
2022-09-07T12:36:26.775Z,97072.38
2022-09-07T12:39:45.797Z,97069.31
2022-09-07T12:42:37.784Z,97068.56
2022-09-07T12:45:52.324Z,97053.72
2022-09-07T12:48:39.761Z,97050.41
2022-09-07T12:51:59.693Z,97050.41
2022-09-07T12:54:13.814Z,97047.53
2022-09-07T12:56:45.462Z,97049.19
2022-09-07T12:59:41.502Z,97048.16
2022-09-07T13:02:31.789Z,97044.78
2022-09-07T13:05:06.846Z,97035.56
2022-09-07T13:08:14.556Z,97042.81
2022-09-07T13:10:55.419Z,97033.31
2022-09-07T13:16:32.242Z,97016.19
2022-09-07T13:19:03.035Z,97022.16
2022-09-07T13:21:46.829Z,97021.13
2022-09-07T13:25:02.534Z,97019.06
2022-09-07T13:27:56.906Z,97024.03
2022-09-07T13:31:00.895Z,97016.19
2022-09-07T13:33:45.959Z,97014.72
2022-09-07T13:36:42.570Z,97012.66
2022-09-07T13:39:19.533Z,97009.56
2022-09-07T13:41:59.172Z,97006.69
2022-09-07T13:44:39.647Z,97000.91
2022-09-07T13:47:23.810Z,96997.19
2022-09-07T13:50:09.593Z,97002.16
2022-09-07T13:53:16.547Z,96998.22
2022-09-07T13:55:59.935Z,96995.13
2022-09-07T13:58:34.100Z,96986.88
2022-09-07T14:01:05.990Z,96985.84
2022-09-07T14:04:01.643Z,96985.44
2022-09-07T14:06:42.391Z,96981.09
2022-09-07T14:09:15.751Z,96980.91
2022-09-07T14:11:46.128Z,96979.44
2022-09-07T14:14:20.929Z,96972.63
2022-09-07T14:16:51.488Z,96972.81
2022-09-07T14:19:24.038Z,96964.75
2022-09-07T14:21:59.131Z,96973.22
2022-09-07T14:24:35.889Z,96971.56
2022-09-07T14:27:24.376Z,96967.44
2022-09-07T14:30:02.102Z,96968.66
2022-09-07T14:32:39.508Z,96966.38
2022-09-07T14:35:12.239Z,96969.44
2022-09-07T14:37:42.536Z,96960.34
2022-09-07T14:40:20.335Z,96962.44
2022-09-07T14:42:59.358Z,96965.16
2022-09-07T14:45:42.681Z,96956.28
2022-09-07T14:48:20.373Z,96954.59
2022-09-07T14:51:05.519Z,96953.50
2022-09-07T14:53:40.566Z,96947.72
2022-09-07T14:56:10.690Z,96946.69
2022-09-07T14:58:39.078Z,96944.59
2022-09-07T15:04:18.265Z,96935.72
2022-09-07T15:07:03.277Z,96935.31
2022-09-07T15:09:37.800Z,96934.03
2022-09-07T15:12:17.605Z,96922.63
2022-09-07T15:14:47.657Z,96920.16
2022-09-07T15:20:36.202Z,96919.56
2022-09-07T15:23:07.264Z,96914.34
2022-09-07T15:25:38.078Z,96912.53
2022-09-07T15:28:06.586Z,96908.41
2022-09-07T15:30:45.893Z,96915.44
2022-09-07T15:33:39.635Z,96909.03
2022-09-07T15:36:24.743Z,96905.69
2022-09-07T15:39:01.103Z,96903.44
2022-09-07T15:41:32.351Z,96893.47
2022-09-07T15:44:01.232Z,96899.44
2022-09-07T15:46:37.170Z,96889.09
2022-09-07T15:49:16.804Z,96886.63
2022-09-07T15:52:06.589Z,96884.16
2022-09-07T15:54:39.898Z,96880.81
2022-09-07T16:00:14.949Z,96884.53
2022-09-07T16:03:11.104Z,96892.81
2022-09-07T16:05:47.614Z,96880.00
2022-09-07T16:08:26.615Z,96887.41
2022-09-07T16:11:05.226Z,96877.47
2022-09-07T16:13:40.110Z,96883.28
2022-09-07T16:16:09.003Z,96872.75
2022-09-07T16:18:40.270Z,96878.94
2022-09-07T16:21:11.894Z,96884.13
2022-09-07T16:23:42.733Z,96865.50
2022-09-07T16:26:12.154Z,96877.09
2022-09-07T16:28:44.034Z,96875.84
2022-09-07T16:31:14.937Z,96876.88
2022-09-07T16:33:43.992Z,96877.47
2022-09-07T16:36:14.323Z,96877.53
2022-09-07T16:38:44.689Z,96877.91
2022-09-07T16:41:30.416Z,96881.44
2022-09-07T16:44:02.411Z,96882.69
2022-09-07T16:46:32.885Z,96873.59
2022-09-07T16:49:01.264Z,96881.44
2022-09-07T16:51:29.702Z,96875.22
2022-09-07T16:53:58.906Z,96864.69
2022-09-07T16:56:28.416Z,96864.91
2022-09-07T16:58:58.896Z,96870.28
2022-09-07T17:01:30.553Z,96857.88
2022-09-07T17:03:59.407Z,96858.94
2022-09-07T17:06:29.782Z,96859.97
2022-09-07T17:08:59.152Z,96856.66
2022-09-07T17:11:39.988Z,96855.63
2022-09-07T17:14:14.595Z,96854.81
2022-09-07T17:16:56.080Z,96852.34
2022-09-07T17:19:30.174Z,96843.66
2022-09-07T17:22:04.156Z,96836.66
2022-09-07T17:24:33.949Z,96852.78
2022-09-07T17:27:03.333Z,96853.00
2022-09-07T17:29:37.154Z,96845.75
2022-09-07T17:32:24.576Z,96851.94
2022-09-07T17:34:54.027Z,96858.34
2022-09-07T17:37:28.567Z,96854.22
2022-09-07T17:39:59.118Z,96850.91
2022-09-07T17:45:33.226Z,96851.78
2022-09-07T17:48:18.725Z,96854.47
2022-09-07T17:50:53.153Z,96847.44
2022-09-07T17:53:34.541Z,96843.31
2022-09-07T17:56:05.084Z,96839.22
2022-09-07T17:58:36.185Z,96837.56
2022-09-07T18:01:06.731Z,96837.34
2022-09-07T18:03:36.861Z,96836.53
2022-09-07T18:06:06.419Z,96839.44
2022-09-07T18:08:34.868Z,96835.91
2022-09-07T18:14:15.590Z,96831.56
2022-09-07T18:16:49.136Z,96840.06
2022-09-07T18:19:20.545Z,96835.94
2022-09-07T18:21:57.406Z,96829.75
2022-09-07T18:24:33.270Z,96841.31
2022-09-07T18:27:10.958Z,96848.56
2022-09-07T18:29:41.001Z,96838.03
2022-09-07T18:32:09.982Z,96832.88
2022-09-07T18:34:50.255Z,96835.75
2022-09-07T18:37:26.912Z,96841.13
2022-09-07T18:40:08.232Z,96843.63
2022-09-07T18:42:37.304Z,96852.09
2022-09-07T18:47:56.937Z,96849.88
2022-09-07T18:50:30.051Z,96849.25
2022-09-07T18:53:10.619Z,96855.66
2022-09-07T18:55:48.648Z,96853.19
2022-09-07T18:58:21.334Z,96858.56
2022-09-07T19:00:54.736Z,96853.41
2022-09-07T19:03:23.259Z,96859.59
2022-09-07T19:06:07.097Z,96852.59
2022-09-07T19:08:45.220Z,96855.47
2022-09-07T19:11:20.267Z,96851.38
2022-09-07T19:13:48.815Z,96859.63
2022-09-07T19:16:18.627Z,96858.81
2022-09-07T19:18:52.214Z,96860.66
2022-09-07T19:21:24.779Z,96858.81
2022-09-07T19:23:56.804Z,96865.00
2022-09-07T19:26:31.420Z,96866.66
2022-09-07T19:29:21.316Z,96879.25
2022-09-07T19:32:07.197Z,96874.50
2022-09-07T19:34:55.919Z,96879.28
2022-09-07T19:37:26.146Z,96873.69
2022-09-07T19:39:55.243Z,96872.88
2022-09-07T19:42:24.667Z,96872.03
2022-09-07T19:44:53.213Z,96870.19
2022-09-07T19:47:21.812Z,96870.41
2022-09-07T19:49:50.431Z,96866.69
2022-09-07T19:52:18.794Z,96859.66
2022-09-07T19:54:48.462Z,96868.97
2022-09-07T19:57:16.894Z,96864.22
2022-09-07T19:59:45.613Z,96865.91
2022-09-07T20:02:14.409Z,96858.88
2022-09-07T20:04:42.851Z,96868.38
2022-09-07T20:07:11.351Z,96863.63
2022-09-07T20:09:39.874Z,96868.78
2022-09-07T20:12:10.061Z,96872.91
2022-09-07T20:14:38.469Z,96867.13
2022-09-07T20:17:06.855Z,96852.50
2022-09-07T20:19:35.313Z,96848.56
2022-09-07T20:22:03.654Z,96841.94
2022-09-07T20:24:32.192Z,96839.06
2022-09-07T20:27:02.616Z,96833.88
2022-09-07T20:29:32.662Z,96831.81
2022-09-07T20:32:01.611Z,96829.97
2022-09-07T20:34:30.343Z,96836.16
2022-09-07T20:36:58.980Z,96831.81
2022-09-07T20:39:27.367Z,96832.66
2022-09-07T20:41:55.785Z,96833.06
2022-09-07T20:44:24.250Z,96819.66
2022-09-07T20:46:54.961Z,96814.28
2022-09-07T20:49:23.603Z,96812.63
2022-09-07T20:51:52.082Z,96804.59
2022-09-07T20:54:20.580Z,96795.91
2022-09-07T20:56:49.117Z,96794.28
2022-09-07T20:59:17.660Z,96800.47
2022-09-07T21:01:46.545Z,96801.50
2022-09-07T21:04:16.726Z,96796.13
2022-09-07T21:06:45.241Z,96793.88
2022-09-07T21:09:14.381Z,96794.09
2022-09-07T21:11:46.149Z,96785.22
2022-09-07T21:14:19.273Z,96780.66
2022-09-07T21:16:47.765Z,96783.78
2022-09-07T21:19:17.738Z,96786.66
2022-09-07T21:21:46.426Z,96782.94
2022-09-07T21:24:20.418Z,96785.63
2022-09-07T21:26:57.218Z,96786.66
2022-09-07T21:29:30.867Z,96779.88
2022-09-07T21:32:03.945Z,96779.47
2022-09-07T21:34:38.718Z,96777.81
2022-09-07T21:37:08.845Z,96784.22
2022-09-07T21:39:37.267Z,96781.13
2022-09-07T21:42:05.986Z,96788.34
2022-09-07T21:44:34.380Z,96782.56
2022-09-07T21:47:02.823Z,96776.38
2022-09-07T21:49:31.336Z,96783.81
2022-09-07T21:52:01.094Z,96778.66
2022-09-07T21:54:30.090Z,96773.50
2022-09-07T21:56:58.845Z,96770.00
2022-09-07T21:59:29.508Z,96771.03
2022-09-07T22:01:59.280Z,96765.69
2022-09-07T22:04:28.816Z,96763.22
2022-09-07T22:06:57.207Z,96756.44
2022-09-07T22:09:26.927Z,96753.97
2022-09-07T22:11:55.320Z,96761.81
2022-09-07T22:14:23.705Z,96766.13
2022-09-07T22:16:52.188Z,96764.84
2022-09-07T22:19:20.812Z,96765.06
2022-09-07T22:21:49.276Z,96761.56
2022-09-07T22:24:17.646Z,96757.47
2022-09-07T22:26:47.349Z,96751.31
2022-09-07T22:29:15.702Z,96751.53
2022-09-07T22:31:44.502Z,96748.00
2022-09-07T22:34:12.946Z,96747.19
2022-09-07T22:36:42.650Z,96748.00
2022-09-07T22:39:13.433Z,96751.72
2022-09-07T22:41:42.468Z,96746.38
2022-09-07T22:44:14.853Z,96756.25
2022-09-07T22:46:44.643Z,96751.72
2022-09-07T22:49:15.040Z,96761.22
2022-09-07T22:51:43.525Z,96761.00
2022-09-07T22:54:11.908Z,96761.00
2022-09-07T22:56:40.538Z,96769.03
2022-09-07T22:59:10.275Z,96796.69
2022-09-07T23:01:40.307Z,96828.03
2022-09-07T23:04:09.028Z,96841.88
2022-09-07T23:06:39.152Z,96855.28
2022-09-07T23:09:09.570Z,96865.81
2022-09-07T23:11:38.426Z,96859.22
2022-09-07T23:14:09.198Z,96856.50
2022-09-07T23:16:37.696Z,96846.81
2022-09-07T23:19:07.497Z,96866.00
2022-09-07T23:21:35.877Z,96878.78
2022-09-07T23:24:04.545Z,96893.63
2022-09-07T23:26:33.506Z,96907.84
2022-09-07T23:29:04.324Z,96900.84
2022-09-07T23:31:33.882Z,96900.41
2022-09-07T23:34:02.820Z,96887.44
2022-09-07T23:36:32.806Z,96885.56
2022-09-07T23:39:01.468Z,96879.19
2022-09-07T23:41:29.890Z,96869.06
2022-09-07T23:43:58.255Z,96864.34
2022-09-07T23:46:26.728Z,96846.00
2022-09-07T23:48:55.138Z,96849.69
2022-09-07T23:51:24.713Z,96850.94
2022-09-07T23:53:54.652Z,96842.88
2022-09-07T23:56:24.431Z,96843.50
2022-09-07T23:58:53.064Z,96834.66
